createdAt,value
2023-01-30T00:00:54.349Z,-2
2023-01-30T00:02:00.624Z,-2
2023-01-30T00:03:06.925Z,-2.1
2023-01-30T00:04:13.199Z,-2.1
2023-01-30T00:05:19.438Z,-2
2023-01-30T00:06:25.723Z,-2.1
2023-01-30T00:07:31.986Z,-2.1
2023-01-30T00:08:37.281Z,-2.1
2023-01-30T00:09:42.581Z,-2.1
2023-01-30T00:10:47.892Z,-2.1
2023-01-30T00:11:53.169Z,-2.1
2023-01-30T00:12:59.435Z,-2.1
2023-01-30T00:14:05.755Z,-2.1
2023-01-30T00:15:12.000Z,-2.1
2023-01-30T00:16:18.254Z,-2.2
2023-01-30T00:17:24.571Z,-2.2
2023-01-30T00:18:30.799Z,-2.1
2023-01-30T00:19:37.107Z,-2.1
2023-01-30T00:20:43.408Z,-2.1
2023-01-30T00:21:49.621Z,-2.1
2023-01-30T00:22:55.898Z,-2.1
2023-01-30T00:24:02.171Z,-2.1
2023-01-30T00:25:08.440Z,-2.1
2023-01-30T00:26:13.821Z,-2.2
2023-01-30T00:27:20.222Z,-2.1
2023-01-30T00:28:26.450Z,-2.2
2023-01-30T00:29:32.691Z,-2.2
2023-01-30T00:30:38.919Z,-2.2
2023-01-30T00:31:45.175Z,-2.1
2023-01-30T00:32:51.507Z,-2.1
2023-01-30T00:33:57.799Z,-2.1
2023-01-30T00:35:02.992Z,-2.1
2023-01-30T00:36:08.420Z,-2.1
2023-01-30T00:37:14.711Z,-2.1
2023-01-30T00:38:19.987Z,-2.1
2023-01-30T00:39:25.275Z,-2.1
2023-01-30T00:40:31.376Z,-2.2
2023-01-30T00:41:37.853Z,-2.2
2023-01-30T00:42:44.203Z,-2.2
2023-01-30T00:43:50.392Z,-2.2
2023-01-30T00:44:56.618Z,-2.2
2023-01-30T00:46:02.730Z,-2.2
2023-01-30T00:47:09.037Z,-2.2
2023-01-30T00:48:15.276Z,-2.2
2023-01-30T00:49:21.772Z,-2.2
2023-01-30T00:50:27.978Z,-2.2
2023-01-30T00:51:34.247Z,-2.2
2023-01-30T00:52:40.366Z,-2.2
2023-01-30T00:53:45.861Z,-2.2
2023-01-30T00:54:51.926Z,-2.2
2023-01-30T00:55:58.358Z,-2.2
2023-01-30T00:57:04.680Z,-2.2
2023-01-30T00:58:10.967Z,-2.2
2023-01-30T00:59:17.220Z,-2.2
2023-01-30T01:00:23.426Z,-2.2
2023-01-30T01:01:28.592Z,-2.2
2023-01-30T01:02:34.050Z,-2.2
2023-01-30T01:03:40.325Z,-2.2
2023-01-30T01:04:46.546Z,-2.2
2023-01-30T01:05:52.827Z,-2.2
2023-01-30T01:06:59.125Z,-2.2
2023-01-30T01:08:05.430Z,-2.3
2023-01-30T01:09:11.571Z,-2.3
2023-01-30T01:10:17.974Z,-2.3
2023-01-30T01:11:24.241Z,-2.3
2023-01-30T01:12:30.577Z,-2.3
2023-01-30T01:13:36.829Z,-2.3
2023-01-30T01:14:42.889Z,-2.3
2023-01-30T01:15:49.359Z,-2.3
2023-01-30T01:16:54.453Z,-2.3
2023-01-30T01:18:00.883Z,-2.3
2023-01-30T01:19:07.169Z,-2.3
2023-01-30T01:20:13.421Z,-2.3
2023-01-30T01:21:19.573Z,-2.3
2023-01-30T01:22:25.923Z,-2.3
2023-01-30T01:23:32.340Z,-2.3
2023-01-30T01:24:37.552Z,-2.3
2023-01-30T01:25:42.825Z,-2.3
2023-01-30T01:26:48.166Z,-2.4
2023-01-30T01:27:54.408Z,-2.4
2023-01-30T01:28:59.744Z,-2.4
2023-01-30T01:30:05.961Z,-2.4
2023-01-30T01:31:12.239Z,-2.4
2023-01-30T01:32:18.560Z,-2.4
2023-01-30T01:33:24.805Z,-2.4
2023-01-30T01:34:31.083Z,-2.4
2023-01-30T01:35:37.350Z,-2.4
2023-01-30T01:36:43.583Z,-2.4
2023-01-30T01:37:49.873Z,-2.4
2023-01-30T01:38:56.001Z,-2.4
2023-01-30T01:40:02.390Z,-2.4
2023-01-30T01:41:08.788Z,-2.4
2023-01-30T01:42:14.960Z,-2.4
2023-01-30T01:43:20.338Z,-2.4
2023-01-30T01:44:26.545Z,-2.4
2023-01-30T01:45:32.658Z,-2.4
2023-01-30T01:46:39.099Z,-2.4
2023-01-30T01:47:45.406Z,-2.4
2023-01-30T01:48:51.584Z,-2.4
2023-01-30T01:49:56.872Z,-2.4
2023-01-30T01:51:02.278Z,-2.3
2023-01-30T01:52:08.577Z,-2.4
2023-01-30T01:53:14.771Z,-2.3
2023-01-30T01:54:21.046Z,-2.4
2023-01-30T01:55:26.341Z,-2.3
2023-01-30T01:56:31.694Z,-2.4
2023-01-30T01:57:37.961Z,-2.3
2023-01-30T01:58:44.168Z,-2.4
2023-01-30T01:59:50.471Z,-2.3
2023-01-30T02:00:56.809Z,-2.4
2023-01-30T02:02:03.058Z,-2.3
2023-01-30T02:03:09.259Z,-2.3
2023-01-30T02:04:15.545Z,-2.3
2023-01-30T02:05:21.834Z,-2.3
2023-01-30T02:06:27.917Z,-2.3
2023-01-30T02:07:34.352Z,-2.3
2023-01-30T02:08:40.631Z,-2.3
2023-01-30T02:09:46.741Z,-2.3
2023-01-30T02:10:52.232Z,-2.3
2023-01-30T02:11:58.476Z,-2.3
2023-01-30T02:13:04.777Z,-2.3
2023-01-30T02:14:11.030Z,-2.3
2023-01-30T02:15:17.117Z,-2.3
2023-01-30T02:16:23.575Z,-2.3
2023-01-30T02:17:29.821Z,-2.3
2023-01-30T02:18:34.984Z,-2.3
2023-01-30T02:19:41.313Z,-2.3
2023-01-30T02:20:46.692Z,-2.3
2023-01-30T02:21:52.032Z,-2.3
2023-01-30T02:22:57.309Z,-2.3
2023-01-30T02:24:03.558Z,-2.3
2023-01-30T02:25:09.657Z,-2.2
2023-01-30T02:26:16.101Z,-2.3
2023-01-30T02:27:22.433Z,-2.3
2023-01-30T02:28:28.476Z,-2.3
2023-01-30T02:29:34.946Z,-2.2
2023-01-30T02:30:41.224Z,-2.3
2023-01-30T02:31:47.293Z,-2.2
2023-01-30T02:32:53.678Z,-2.2
2023-01-30T02:34:00.007Z,-2.2
2023-01-30T02:35:06.110Z,-2.3
2023-01-30T02:36:12.542Z,-2.3
2023-01-30T02:37:18.827Z,-2.3
2023-01-30T02:38:24.153Z,-2.3
2023-01-30T02:39:30.396Z,-2.3
2023-01-30T02:40:36.660Z,-2.3
2023-01-30T02:41:42.956Z,-2.3
2023-01-30T02:42:49.226Z,-2.4
2023-01-30T02:43:55.511Z,-2.4
2023-01-30T02:45:00.742Z,-2.4
2023-01-30T02:46:06.110Z,-2.4
2023-01-30T02:47:11.348Z,-2.4
2023-01-30T02:48:16.688Z,-2.4
2023-01-30T02:49:22.927Z,-2.4
2023-01-30T02:50:29.203Z,-2.4
2023-01-30T02:51:35.523Z,-2.4
2023-01-30T02:52:41.756Z,-2.4
2023-01-30T02:53:48.103Z,-2.4
2023-01-30T02:54:54.277Z,-2.5
2023-01-30T02:56:00.628Z,-2.5
2023-01-30T02:57:06.855Z,-2.5
2023-01-30T02:58:12.957Z,-2.5
2023-01-30T02:59:19.268Z,-2.5
2023-01-30T03:00:25.668Z,-2.5
2023-01-30T03:01:31.954Z,-2.5
2023-01-30T03:02:37.246Z,-2.5
2023-01-30T03:03:43.518Z,-2.5
2023-01-30T03:04:49.801Z,-2.5
2023-01-30T03:05:56.061Z,-2.4
2023-01-30T03:07:02.165Z,-2.5
2023-01-30T03:08:08.545Z,-2.5
2023-01-30T03:09:14.843Z,-2.5
2023-01-30T03:10:20.135Z,-2.5
2023-01-30T03:11:26.425Z,-2.5
2023-01-30T03:12:31.565Z,-2.5
2023-01-30T03:13:37.038Z,-2.5
2023-01-30T03:14:43.295Z,-2.5
2023-01-30T03:15:49.545Z,-2.5
2023-01-30T03:16:55.831Z,-2.5
2023-01-30T03:18:02.133Z,-2.5
2023-01-30T03:19:08.349Z,-2.5
2023-01-30T03:20:14.708Z,-2.5
2023-01-30T03:21:20.768Z,-2.5
2023-01-30T03:22:26.257Z,-2.5
2023-01-30T03:23:32.339Z,-2.5
2023-01-30T03:24:38.780Z,-2.5
2023-01-30T03:25:44.888Z,-2.5
2023-01-30T03:26:51.182Z,-2.5
2023-01-30T03:27:57.587Z,-2.5
2023-01-30T03:29:03.701Z,-2.5
2023-01-30T03:30:10.153Z,-2.6
2023-01-30T03:31:16.329Z,-2.6
2023-01-30T03:32:22.700Z,-2.6
2023-01-30T03:33:29.016Z,-2.6
2023-01-30T03:34:35.271Z,-2.6
2023-01-30T03:35:40.533Z,-2.6
2023-01-30T03:36:45.912Z,-2.6
2023-01-30T03:37:51.093Z,-2.6
2023-01-30T03:38:56.482Z,-2.6
2023-01-30T03:40:02.532Z,-2.6
2023-01-30T03:41:08.983Z,-2.6
2023-01-30T03:42:15.071Z,-2.5
2023-01-30T03:43:21.344Z,-2.6
2023-01-30T03:44:27.682Z,-2.6
2023-01-30T03:45:33.898Z,-2.5
2023-01-30T03:46:40.233Z,-2.5
2023-01-30T03:47:46.429Z,-2.5
2023-01-30T03:48:52.792Z,-2.5
2023-01-30T03:49:58.978Z,-2.6
2023-01-30T03:51:05.402Z,-2.5
2023-01-30T03:52:11.681Z,-2.5
2023-01-30T03:53:16.818Z,-2.5
2023-01-30T03:54:23.205Z,-2.6
2023-01-30T03:55:29.438Z,-2.5
2023-01-30T03:56:35.780Z,-2.6
2023-01-30T03:57:42.040Z,-2.6
2023-01-30T03:58:48.368Z,-2.5
2023-01-30T03:59:54.507Z,-2.6
2023-01-30T04:01:00.728Z,-2.6
2023-01-30T04:02:07.180Z,-2.6
2023-01-30T04:04:18.564Z,-2.6
2023-01-30T04:05:24.854Z,-2.6
2023-01-30T04:06:30.312Z,-2.6
2023-01-30T04:07:35.548Z,-2.6
2023-01-30T04:08:40.876Z,-2.6
2023-01-30T04:09:46.017Z,-2.6
2023-01-30T04:10:52.406Z,-2.6
2023-01-30T04:11:58.602Z,-2.6
2023-01-30T04:13:05.001Z,-2.6
2023-01-30T04:14:11.109Z,-2.6
2023-01-30T04:15:17.380Z,-2.6
2023-01-30T04:16:23.719Z,-2.6
2023-01-30T04:17:30.046Z,-2.6
2023-01-30T04:18:36.225Z,-2.6
2023-01-30T04:19:42.612Z,-2.6
2023-01-30T04:20:48.821Z,-2.6
2023-01-30T04:21:55.215Z,-2.5
2023-01-30T04:23:01.409Z,-2.5
2023-01-30T04:24:06.611Z,-2.5
2023-01-30T04:25:12.961Z,-2.5
2023-01-30T04:26:19.240Z,-2.5
2023-01-30T04:27:25.513Z,-2.5
2023-01-30T04:28:31.692Z,-2.5
2023-01-30T04:29:38.072Z,-2.5
2023-01-30T04:30:44.300Z,-2.5
2023-01-30T04:31:50.612Z,-2.5
2023-01-30T04:32:55.951Z,-2.5
2023-01-30T04:34:01.219Z,-2.5
2023-01-30T04:35:07.468Z,-2.5
2023-01-30T04:36:13.851Z,-2.5
2023-01-30T04:37:18.997Z,-2.5
2023-01-30T04:38:24.469Z,-2.5
2023-01-30T04:39:30.608Z,-2.5
2023-01-30T04:40:36.891Z,-2.5
2023-01-30T04:41:43.120Z,-2.5
2023-01-30T04:42:49.478Z,-2.5
2023-01-30T04:43:55.721Z,-2.5
2023-01-30T04:45:02.058Z,-2.4
2023-01-30T04:46:08.140Z,-2.5
2023-01-30T04:47:14.515Z,-2.5
2023-01-30T04:48:20.805Z,-2.4
2023-01-30T04:49:27.042Z,-2.5
2023-01-30T04:50:33.293Z,-2.5
2023-01-30T04:51:39.610Z,-2.4
2023-01-30T04:53:51.130Z,-2.5
2023-01-30T04:54:57.475Z,-2.4
2023-01-30T04:56:03.698Z,-2.4
2023-01-30T04:57:09.939Z,-2.4
2023-01-30T04:58:16.302Z,-2.4
2023-01-30T04:59:22.551Z,-2.4
2023-01-30T05:00:28.784Z,-2.4
2023-01-30T05:01:34.147Z,-2.4
2023-01-30T05:02:40.393Z,-2.4
2023-01-30T05:03:45.558Z,-2.4
2023-01-30T05:04:50.974Z,-2.4
2023-01-30T05:05:57.220Z,-2.4
2023-01-30T05:07:03.654Z,-2.3
2023-01-30T05:08:09.745Z,-2.3
2023-01-30T05:09:16.061Z,-2.3
2023-01-30T05:10:22.238Z,-2.3
2023-01-30T05:11:28.613Z,-2.3
2023-01-30T05:12:34.891Z,-2.4
2023-01-30T05:13:41.058Z,-2.3
2023-01-30T05:14:47.353Z,-2.3
2023-01-30T05:15:53.717Z,-2.3
2023-01-30T05:16:59.994Z,-2.3
2023-01-30T05:18:06.283Z,-2.3
2023-01-30T05:19:11.421Z,-2.3
2023-01-30T05:20:17.742Z,-2.3
2023-01-30T05:21:24.158Z,-2.3
2023-01-30T05:22:30.336Z,-2.3
2023-01-30T05:23:36.646Z,-2.3
2023-01-30T05:24:42.883Z,-2.3
2023-01-30T05:25:49.170Z,-2.3
2023-01-30T05:26:54.403Z,-2.3
2023-01-30T05:27:59.649Z,-2.3
2023-01-30T05:29:06.114Z,-2.3
2023-01-30T05:30:12.351Z,-2.3
2023-01-30T05:31:18.463Z,-2.3
2023-01-30T05:32:24.866Z,-2.3
2023-01-30T05:33:31.118Z,-2.3
2023-01-30T05:34:37.284Z,-2.3
2023-01-30T05:35:43.682Z,-2.3
2023-01-30T05:36:50.009Z,-2.3
2023-01-30T05:37:56.232Z,-2.2
2023-01-30T05:39:02.387Z,-2.3
2023-01-30T05:40:08.828Z,-2.3
2023-01-30T05:41:14.970Z,-2.2
2023-01-30T05:42:21.376Z,-2.3
2023-01-30T05:43:26.604Z,-2.3
2023-01-30T05:44:32.876Z,-2.3
2023-01-30T05:45:39.158Z,-2.2
2023-01-30T05:46:45.456Z,-2.2
2023-01-30T05:47:51.567Z,-2.2
2023-01-30T05:48:57.956Z,-2.2
2023-01-30T05:50:03.214Z,-2.2
2023-01-30T05:51:08.573Z,-2.2
2023-01-30T05:52:13.785Z,-2.2
2023-01-30T05:53:19.172Z,-2.1
2023-01-30T05:54:25.431Z,-2.1
2023-01-30T05:55:30.627Z,-2.1
2023-01-30T05:56:36.002Z,-2.1
2023-01-30T05:57:42.339Z,-2.1
2023-01-30T05:58:48.580Z,-2.1
2023-01-30T05:59:54.750Z,-2.1
2023-01-30T06:01:01.048Z,-2.1
2023-01-30T06:02:07.392Z,-2.1
2023-01-30T06:03:13.679Z,-2.1
2023-01-30T06:04:19.846Z,-2.1
2023-01-30T06:05:26.092Z,-2.1
2023-01-30T06:06:32.369Z,-2.1
2023-01-30T06:07:38.768Z,-2.1
2023-01-30T06:08:45.105Z,-2.1
2023-01-30T06:09:51.292Z,-2.1
2023-01-30T06:10:56.630Z,-2.1
2023-01-30T06:12:02.847Z,-2.1
2023-01-30T06:13:09.130Z,-2.1
2023-01-30T06:14:15.383Z,-2.1
2023-01-30T06:15:21.654Z,-2.1
2023-01-30T06:16:27.909Z,-2.1
2023-01-30T06:17:34.206Z,-2.1
2023-01-30T06:18:40.349Z,-2.2
2023-01-30T06:19:46.738Z,-2.2
2023-01-30T06:20:52.899Z,-2.2
2023-01-30T06:21:59.168Z,-2.2
2023-01-30T06:23:04.663Z,-2.2
2023-01-30T06:24:09.830Z,-2.3
2023-01-30T06:25:15.314Z,-2.3
2023-01-30T06:26:21.514Z,-2.2
2023-01-30T06:27:26.765Z,-2.2
2023-01-30T06:28:32.962Z,-2.2
2023-01-30T06:29:39.286Z,-2.3
2023-01-30T06:30:45.587Z,-2.2
2023-01-30T06:31:51.736Z,-2.2
2023-01-30T06:32:57.993Z,-2.2
2023-01-30T06:34:04.362Z,-2.2
2023-01-30T06:35:10.528Z,-2.2
2023-01-30T06:36:16.943Z,-2.2
2023-01-30T06:37:23.212Z,-2.2
2023-01-30T06:38:29.348Z,-2.2
2023-01-30T06:39:35.808Z,-2.2
2023-01-30T06:40:42.127Z,-2.2
2023-01-30T06:41:47.188Z,-2.1
2023-01-30T06:42:53.632Z,-2.1
2023-01-30T06:43:59.910Z,-2.1
2023-01-30T06:45:06.076Z,-2.1
2023-01-30T06:46:12.539Z,-2.1
2023-01-30T06:47:18.814Z,-2.1
2023-01-30T06:48:23.869Z,-2.1
2023-01-30T06:49:29.160Z,-2.1
2023-01-30T06:50:35.444Z,-2.1
2023-01-30T06:51:41.838Z,-2.1
2023-01-30T06:52:47.102Z,-2.1
2023-01-30T06:53:52.422Z,-2.1
2023-01-30T06:54:58.743Z,-2.1
2023-01-30T06:56:04.893Z,-2.1
2023-01-30T06:57:11.195Z,-2.1
2023-01-30T06:58:17.442Z,-2.1
2023-01-30T06:59:23.754Z,-2.1
2023-01-30T07:00:29.930Z,-2
2023-01-30T07:01:36.286Z,-2
2023-01-30T07:02:42.571Z,-2
2023-01-30T07:03:47.753Z,-2
2023-01-30T07:04:54.156Z,-2
2023-01-30T07:06:00.443Z,-2
2023-01-30T07:07:06.682Z,-2
2023-01-30T07:08:13.094Z,-2
2023-01-30T07:09:19.340Z,-2
2023-01-30T07:10:25.505Z,-1.9
2023-01-30T07:11:31.824Z,-2
2023-01-30T07:12:38.043Z,-2
2023-01-30T07:13:44.319Z,-1.9
2023-01-30T07:14:50.476Z,-2
2023-01-30T07:15:55.830Z,-2
2023-01-30T07:17:02.127Z,-1.9
2023-01-30T07:18:08.468Z,-1.9
2023-01-30T07:19:13.791Z,-1.9
2023-01-30T07:20:20.070Z,-1.9
2023-01-30T07:21:26.310Z,-1.9
2023-01-30T07:22:32.582Z,-1.9
2023-01-30T07:23:38.894Z,-1.9
2023-01-30T07:24:45.084Z,-1.9
2023-01-30T07:25:51.249Z,-1.9
2023-01-30T07:26:57.583Z,-1.9
2023-01-30T07:28:03.874Z,-1.9
2023-01-30T07:29:10.223Z,-1.9
2023-01-30T07:30:16.511Z,-1.9
2023-01-30T07:31:22.638Z,-1.9
2023-01-30T07:32:28.924Z,-1.9
2023-01-30T07:33:34.243Z,-1.9
2023-01-30T07:34:40.643Z,-1.9
2023-01-30T07:35:46.840Z,-1.9
2023-01-30T07:36:53.193Z,-1.8
2023-01-30T07:37:59.400Z,-1.8
2023-01-30T07:39:05.676Z,-1.7
2023-01-30T07:40:10.958Z,-1.7
2023-01-30T07:41:16.277Z,-1.7
2023-01-30T07:42:21.554Z,-1.7
2023-01-30T07:43:26.804Z,-1.6
2023-01-30T07:44:32.021Z,-1.6
2023-01-30T07:45:37.471Z,-1.6
2023-01-30T07:46:43.581Z,-1.6
2023-01-30T07:47:49.855Z,-1.6
2023-01-30T07:48:56.139Z,-1.6
2023-01-30T07:50:02.408Z,-1.5
2023-01-30T07:51:08.734Z,-1.5
2023-01-30T07:52:14.951Z,-1.5
2023-01-30T07:53:21.240Z,-1.4
2023-01-30T07:54:27.612Z,-1.5
2023-01-30T07:55:33.762Z,-1.4
2023-01-30T07:56:40.194Z,-1.4
2023-01-30T07:57:46.314Z,-1.4
2023-01-30T07:58:52.674Z,-1.4
2023-01-30T07:59:57.876Z,-1.4
2023-01-30T08:01:04.246Z,-1.4
2023-01-30T08:02:10.579Z,-1.4
2023-01-30T08:03:16.839Z,-1.4
2023-01-30T08:04:23.092Z,-1.4
2023-01-30T08:05:29.377Z,-1.3
2023-01-30T08:06:35.708Z,-1.4
2023-01-30T08:07:40.965Z,-1.4
2023-01-30T08:08:46.293Z,-1.4
2023-01-30T08:09:51.505Z,-1.5
2023-01-30T08:10:56.691Z,-1.4
2023-01-30T08:12:03.137Z,-1.4
2023-01-30T08:13:09.300Z,-1.4
2023-01-30T08:14:15.642Z,-1.4
2023-01-30T08:15:21.843Z,-1.4
2023-01-30T08:16:28.050Z,-1.4
2023-01-30T08:17:34.330Z,-1.3
2023-01-30T08:18:40.808Z,-1.3
2023-01-30T08:19:46.875Z,-1.3
2023-01-30T08:20:53.264Z,-1.3
2023-01-30T08:21:59.557Z,-1.3
2023-01-30T08:23:05.896Z,-1.2
2023-01-30T08:24:12.047Z,-1.3
2023-01-30T08:25:17.398Z,-1.2
2023-01-30T08:26:23.747Z,-1.2
2023-01-30T08:27:30.027Z,-1.2
2023-01-30T08:28:36.185Z,-1.2
2023-01-30T08:29:42.418Z,-1.1
2023-01-30T08:30:48.628Z,-1.1
2023-01-30T08:31:54.949Z,-1.1
2023-01-30T08:33:00.295Z,-1.1
2023-01-30T08:34:05.592Z,-1.1
2023-01-30T08:35:10.769Z,-1.1
2023-01-30T08:36:16.060Z,-1.1
2023-01-30T08:37:22.375Z,-1.1
2023-01-30T08:38:28.726Z,-1.1
2023-01-30T08:39:34.902Z,-1.1
2023-01-30T08:40:41.170Z,-1.1
2023-01-30T08:41:47.594Z,-1
2023-01-30T08:42:53.853Z,-1
2023-01-30T08:44:00.108Z,-1.1
2023-01-30T08:45:06.254Z,-1
2023-01-30T08:46:12.675Z,-1
2023-01-30T08:47:18.969Z,-1
2023-01-30T08:48:25.069Z,-1
2023-01-30T08:49:31.500Z,-1
2023-01-30T08:50:37.707Z,-0.9
2023-01-30T08:51:43.015Z,-0.9
2023-01-30T08:52:49.303Z,-0.9
2023-01-30T08:53:55.432Z,-0.9
2023-01-30T08:55:01.747Z,-0.9
2023-01-30T08:56:08.046Z,-0.8
2023-01-30T08:57:14.333Z,-0.8
2023-01-30T08:58:19.683Z,-0.8
2023-01-30T08:59:24.967Z,-0.7
2023-01-30T09:00:31.129Z,-0.7
2023-01-30T09:01:37.559Z,-0.7
2023-01-30T09:02:45.489Z,-0.7
2023-01-30T09:03:49.122Z,-0.6
2023-01-30T09:04:55.411Z,-0.6
2023-01-30T09:06:00.682Z,-0.6
2023-01-30T09:07:06.937Z,-0.6
2023-01-30T09:08:13.189Z,-0.6
2023-01-30T09:09:19.485Z,-0.5
2023-01-30T09:10:25.621Z,-0.5
2023-01-30T09:11:31.914Z,-0.5
2023-01-30T09:12:38.255Z,-0.6
2023-01-30T09:13:44.449Z,-0.5
2023-01-30T09:14:50.702Z,-0.5
2023-01-30T09:15:57.128Z,-0.5
2023-01-30T09:17:03.243Z,-0.5
2023-01-30T09:18:09.517Z,-0.5
2023-01-30T09:19:15.917Z,-0.4
2023-01-30T09:20:21.125Z,-0.4
2023-01-30T09:21:27.437Z,-0.4
2023-01-30T09:22:33.689Z,-0.3
2023-01-30T09:23:39.985Z,-0.3
2023-01-30T09:24:46.182Z,-0.3
2023-01-30T09:25:52.602Z,-0.3
2023-01-30T09:26:58.727Z,-0.3
2023-01-30T09:28:05.157Z,-0.3
2023-01-30T09:29:11.455Z,-0.2
2023-01-30T09:30:17.644Z,-0.2
2023-01-30T09:31:24.035Z,-0.2
2023-01-30T09:32:30.226Z,-0.2
2023-01-30T09:33:36.521Z,-0.2
2023-01-30T09:34:42.798Z,-0.1
2023-01-30T09:35:48.983Z,0
2023-01-30T09:36:54.309Z,0
2023-01-30T09:38:00.635Z,0
2023-01-30T09:39:05.811Z,-0.1
2023-01-30T09:40:12.025Z,0
2023-01-30T09:41:17.327Z,-0.1
2023-01-30T09:42:22.710Z,-0.1
2023-01-30T09:43:28.976Z,-0.1
2023-01-30T09:44:35.177Z,-0.2
2023-01-30T09:45:41.541Z,-0.2
2023-01-30T09:46:47.838Z,-0.2
2023-01-30T09:47:54.098Z,-0.1
2023-01-30T09:49:00.260Z,0
2023-01-30T09:50:06.588Z,0
2023-01-30T09:51:12.804Z,0.1
2023-01-30T09:52:19.074Z,0.1
2023-01-30T09:53:25.489Z,0.2
2023-01-30T09:54:31.623Z,0.3
2023-01-30T09:55:38.054Z,0.3
2023-01-30T09:56:43.348Z,0.3
2023-01-30T09:57:49.582Z,0.3
2023-01-30T09:58:55.857Z,0.3
2023-01-30T10:00:02.122Z,0.3
2023-01-30T10:01:08.304Z,0.3
2023-01-30T10:02:14.652Z,0.3
2023-01-30T10:03:20.945Z,0.4
2023-01-30T10:04:26.179Z,0.4
2023-01-30T10:05:31.456Z,0.3
2023-01-30T10:06:37.860Z,0.3
2023-01-30T10:07:43.961Z,0.3
2023-01-30T10:08:50.301Z,0.3
2023-01-30T10:09:56.484Z,0.3
2023-01-30T10:11:02.888Z,0.4
2023-01-30T10:12:09.037Z,0.4
2023-01-30T10:13:15.308Z,0.4
2023-01-30T10:14:20.771Z,0.5
2023-01-30T10:15:26.047Z,0.5
2023-01-30T10:16:32.311Z,0.5
2023-01-30T10:17:38.605Z,0.6
2023-01-30T10:18:44.709Z,0.7
2023-01-30T10:19:51.000Z,0.8
2023-01-30T10:20:57.255Z,0.8
2023-01-30T10:22:03.670Z,0.9
2023-01-30T10:23:09.965Z,1
2023-01-30T10:24:16.250Z,1.1
2023-01-30T10:25:22.480Z,1.1
2023-01-30T10:26:28.753Z,1.1
2023-01-30T10:27:35.097Z,1
2023-01-30T10:28:41.376Z,1.1
2023-01-30T10:29:46.617Z,1.1
2023-01-30T10:30:52.861Z,1.2
2023-01-30T10:31:59.167Z,1.2
2023-01-30T10:33:05.423Z,1.2
2023-01-30T10:34:11.725Z,1.2
2023-01-30T10:35:18.016Z,1.2
2023-01-30T10:36:24.273Z,1.1
2023-01-30T10:37:29.374Z,1.1
2023-01-30T10:38:34.667Z,1.2
2023-01-30T10:39:41.084Z,1.2
2023-01-30T10:40:47.349Z,1.2
2023-01-30T10:41:53.708Z,1.2
2023-01-30T10:42:58.945Z,1.2
2023-01-30T10:44:04.270Z,1.2
2023-01-30T10:45:09.379Z,1.2
2023-01-30T10:46:15.817Z,1.1
2023-01-30T10:47:22.078Z,1.1
2023-01-30T10:48:28.179Z,1.1
2023-01-30T10:49:34.565Z,1.1
2023-01-30T10:50:40.883Z,1.1
2023-01-30T10:51:47.181Z,1.1
2023-01-30T10:52:53.400Z,1.1
2023-01-30T10:53:59.540Z,1.1
2023-01-30T10:55:05.816Z,1.1
2023-01-30T10:56:12.183Z,1.1
2023-01-30T10:57:18.496Z,1.1
2023-01-30T10:58:24.756Z,1.1
2023-01-30T10:59:30.031Z,1.1
2023-01-30T11:00:36.240Z,1.1
2023-01-30T11:01:42.479Z,1.1
2023-01-30T11:02:48.742Z,1.2
2023-01-30T11:03:55.018Z,1.2
2023-01-30T11:05:01.325Z,1.1
2023-01-30T11:06:06.608Z,1.1
2023-01-30T11:07:11.878Z,1.1
2023-01-30T11:08:18.175Z,1.1
2023-01-30T11:09:24.495Z,1.1
2023-01-30T11:10:30.737Z,1.2
2023-01-30T11:11:36.977Z,1.2
2023-01-30T11:12:43.241Z,1.2
2023-01-30T11:13:49.605Z,1.2
2023-01-30T11:14:55.792Z,1.2
2023-01-30T11:16:02.070Z,1.2
2023-01-30T11:17:08.367Z,1.3
2023-01-30T11:18:14.754Z,1.3
2023-01-30T11:19:20.891Z,1.3
2023-01-30T11:20:27.154Z,1.3
2023-01-30T11:21:32.563Z,1.3
2023-01-30T11:22:38.855Z,1.3
2023-01-30T11:23:45.169Z,1.3
2023-01-30T11:24:51.407Z,1.3
2023-01-30T11:25:57.618Z,1.4
2023-01-30T11:27:03.824Z,1.4
2023-01-30T11:28:10.064Z,1.4
2023-01-30T11:29:16.500Z,1.4
2023-01-30T11:30:22.733Z,1.4
2023-01-30T11:31:28.901Z,1.4
2023-01-30T11:32:35.333Z,1.5
2023-01-30T11:33:41.599Z,1.5
2023-01-30T11:34:47.889Z,1.5
2023-01-30T11:35:53.127Z,1.5
2023-01-30T11:36:59.362Z,1.5
2023-01-30T11:38:05.695Z,1.5
2023-01-30T11:39:11.932Z,1.5
2023-01-30T11:40:18.088Z,1.5
2023-01-30T11:41:24.535Z,1.5
2023-01-30T11:42:30.804Z,1.6
2023-01-30T11:43:37.076Z,1.5
2023-01-30T11:44:43.202Z,1.5
2023-01-30T11:45:49.479Z,1.5
2023-01-30T11:46:55.783Z,1.5
2023-01-30T11:48:01.987Z,1.4
2023-01-30T11:49:08.257Z,1.4
2023-01-30T11:50:13.708Z,1.4
2023-01-30T11:51:19.975Z,1.4
2023-01-30T11:52:26.270Z,1.4
2023-01-30T11:53:32.501Z,1.4
2023-01-30T11:54:38.814Z,1.4
2023-01-30T11:55:45.062Z,1.3
2023-01-30T11:56:51.182Z,1.3
2023-01-30T11:57:56.565Z,1.3
2023-01-30T11:59:01.941Z,1.3
2023-01-30T12:00:07.198Z,1.3
2023-01-30T12:01:12.353Z,1.3
2023-01-30T12:02:18.621Z,1.2
2023-01-30T12:03:25.027Z,1.2
2023-01-30T12:04:31.162Z,1.2
2023-01-30T12:05:37.442Z,1.2
2023-01-30T12:06:43.954Z,1.2
2023-01-30T12:07:50.052Z,1.2
2023-01-30T12:08:56.439Z,1.3
2023-01-30T12:10:02.568Z,1.3
2023-01-30T12:11:08.967Z,1.3
2023-01-30T12:12:15.221Z,1.3
2023-01-30T12:13:21.525Z,1.4
2023-01-30T12:14:27.623Z,1.4
2023-01-30T12:15:32.994Z,1.4
2023-01-30T12:16:39.339Z,1.4
2023-01-30T12:17:45.615Z,1.4
2023-01-30T12:18:51.911Z,1.4
2023-01-30T12:19:58.209Z,1.4
2023-01-30T12:21:04.367Z,1.4
2023-01-30T12:22:10.694Z,1.5
2023-01-30T12:23:16.904Z,1.5
2023-01-30T12:24:23.283Z,1.5
2023-01-30T12:25:29.500Z,1.5
2023-01-30T12:26:34.837Z,1.5
2023-01-30T12:27:41.044Z,1.5
2023-01-30T12:28:46.299Z,1.5
2023-01-30T12:29:52.754Z,1.6
2023-01-30T12:30:58.960Z,1.6
2023-01-30T12:32:04.103Z,1.6
2023-01-30T12:33:09.498Z,1.6
2023-01-30T12:34:15.730Z,1.6
2023-01-30T12:35:22.006Z,1.7
2023-01-30T12:36:28.338Z,1.7
2023-01-30T12:37:34.438Z,1.7
2023-01-30T12:38:40.714Z,1.6
2023-01-30T12:39:47.106Z,1.6
2023-01-30T12:40:53.251Z,1.6
2023-01-30T12:41:59.700Z,1.5
2023-01-30T12:43:05.804Z,1.5
2023-01-30T12:44:12.073Z,1.5
2023-01-30T12:45:18.347Z,1.5
2023-01-30T12:46:24.788Z,1.5
2023-01-30T12:47:30.061Z,1.4
2023-01-30T12:48:36.254Z,1.5
2023-01-30T12:49:42.497Z,1.5
2023-01-30T12:50:48.712Z,1.5
2023-01-30T12:51:54.997Z,1.5
2023-01-30T12:53:01.274Z,1.5
2023-01-30T12:54:07.688Z,1.5
2023-01-30T12:55:13.943Z,1.5
2023-01-30T12:56:20.280Z,1.4
2023-01-30T12:57:26.444Z,1.4
2023-01-30T12:58:32.620Z,1.4
2023-01-30T12:59:39.078Z,1.4
2023-01-30T13:00:45.211Z,1.4
2023-01-30T13:01:50.457Z,1.4
2023-01-30T13:02:56.869Z,1.4
2023-01-30T13:04:03.187Z,1.4
2023-01-30T13:05:09.414Z,1.3
2023-01-30T13:06:15.551Z,1.3
2023-01-30T13:07:21.920Z,1.3
2023-01-30T13:08:28.221Z,1.3
2023-01-30T13:09:34.485Z,1.3
2023-01-30T13:10:40.817Z,1.3
2023-01-30T13:11:47.058Z,1.3
2023-01-30T13:12:52.208Z,1.3
2023-01-30T13:13:57.621Z,1.3
2023-01-30T13:15:03.773Z,1.3
2023-01-30T13:16:09.192Z,1.3
2023-01-30T13:17:14.372Z,1.3
2023-01-30T13:18:20.619Z,1.3
2023-01-30T13:19:26.898Z,1.4
2023-01-30T13:20:33.259Z,1.4
2023-01-30T13:21:39.444Z,1.4
2023-01-30T13:22:45.866Z,1.4
2023-01-30T13:23:52.081Z,1.4
2023-01-30T13:24:58.441Z,1.4
2023-01-30T13:26:04.560Z,1.3
2023-01-30T13:27:10.866Z,1.3
2023-01-30T13:28:17.126Z,1.3
2023-01-30T13:29:23.442Z,1.3
2023-01-30T13:30:29.643Z,1.3
2023-01-30T13:31:35.893Z,1.3
2023-01-30T13:32:41.328Z,1.3
2023-01-30T13:33:47.576Z,1.3
2023-01-30T13:34:53.895Z,1.3
2023-01-30T13:36:00.157Z,1.3
2023-01-30T13:37:06.440Z,1.3
2023-01-30T13:38:12.615Z,1.3
2023-01-30T13:39:19.000Z,1.2
2023-01-30T13:40:25.172Z,1.2
2023-01-30T13:41:31.363Z,1.2
2023-01-30T13:42:37.653Z,1.1
2023-01-30T13:43:44.017Z,1.1
2023-01-30T13:44:50.365Z,1.1
2023-01-30T13:45:56.444Z,1.1
2023-01-30T13:47:01.754Z,1.1
2023-01-30T13:48:08.067Z,1.1
2023-01-30T13:49:14.429Z,1.1
2023-01-30T13:50:20.595Z,1.1
2023-01-30T13:51:26.829Z,1
2023-01-30T13:52:33.143Z,1
2023-01-30T13:53:39.463Z,1
2023-01-30T13:54:45.701Z,1
2023-01-30T13:55:52.028Z,1
2023-01-30T13:56:58.315Z,1
2023-01-30T13:58:04.617Z,1
2023-01-30T13:59:10.727Z,1
2023-01-30T14:00:17.014Z,1.1
2023-01-30T14:01:22.440Z,1.1
2023-01-30T14:02:28.640Z,1
2023-01-30T14:03:35.001Z,1.1
2023-01-30T14:04:41.111Z,1.1
2023-01-30T14:05:47.380Z,1.1
2023-01-30T14:06:53.820Z,1.1
2023-01-30T14:08:00.099Z,1.1
2023-01-30T14:09:06.251Z,1.1
2023-01-30T14:10:12.588Z,1.1
2023-01-30T14:11:18.809Z,1.1
2023-01-30T14:12:25.211Z,1.1
2023-01-30T14:13:31.414Z,1.1
2023-01-30T14:15:44.016Z,1.1
2023-01-30T14:16:49.317Z,1.1
2023-01-30T14:17:55.556Z,1.1
2023-01-30T14:19:01.913Z,1.2
2023-01-30T14:20:07.969Z,1.2
2023-01-30T14:21:14.314Z,1.1
2023-01-30T14:22:20.651Z,1.2
2023-01-30T14:23:26.752Z,1.1
2023-01-30T14:24:33.182Z,1.1
2023-01-30T14:25:39.308Z,1.1
2023-01-30T14:26:44.702Z,1.2
2023-01-30T14:27:50.876Z,1.1
2023-01-30T14:28:57.384Z,1.1
2023-01-30T14:30:02.444Z,1.1
2023-01-30T14:31:07.898Z,1.1
2023-01-30T14:32:14.185Z,1.1
2023-01-30T14:33:20.471Z,1.1
2023-01-30T14:34:26.633Z,1.1
2023-01-30T14:35:32.822Z,1.2
2023-01-30T14:36:39.305Z,1.1
2023-01-30T14:37:45.520Z,1.2
2023-01-30T14:38:50.814Z,1.1
2023-01-30T14:39:57.142Z,1.1
2023-01-30T14:41:02.380Z,1.1
2023-01-30T14:42:08.505Z,1.1
2023-01-30T14:43:14.767Z,1.1
2023-01-30T14:44:21.186Z,1.1
2023-01-30T14:45:27.468Z,1.1
2023-01-30T14:46:33.583Z,1.1
2023-01-30T14:47:40.098Z,1.1
2023-01-30T14:48:46.268Z,1.1
2023-01-30T14:49:52.531Z,1.1
2023-01-30T14:50:58.807Z,1.1
2023-01-30T14:52:05.022Z,1.1
2023-01-30T14:53:11.244Z,1.1
2023-01-30T14:54:17.679Z,1.1
2023-01-30T14:55:22.892Z,1.1
2023-01-30T14:56:29.235Z,1.1